Time;durP1;ratioP1;P1;durP2;ratioP2;P2;SDS_P1;SDS_P2;PMS_P1;PMS_P2;Temp;Humidity;BMP_temperature;BMP_pressure;BME280_temperature;BME280_humidity;BME280_pressure;Samples;Min_cycle;Max_cycle;Signal;HPM_P1;HPM_P2
2023/01/31 00:00:03;;;;;;;;;;;;;;;3.73;75.12;100810.47;1087058;54;19927;-79
2023/01/31 00:01:08;;;;;;;;;;;;;;;3.77;75.08;100819.13;1087036;54;19943;-80
2023/01/31 00:02:11;;;;;;;;;;;;;;;3.68;75.50;100825.75;1087036;54;19942;-80
2023/01/31 00:03:16;;;;;;;;;;;;;;;3.81;75.34;100817.19;1087092;54;19950;-80
2023/01/31 00:04:20;;;;;;;;;;;;;;;3.69;75.37;100821.31;1087011;54;20484;-81
2023/01/31 00:05:21;;;;;;;;;;;;;;;3.64;75.63;100815.44;1086965;54;19951;-80
2023/01/31 00:06:26;;;;;;;;;;;;;;;3.67;75.59;100820.56;1086980;54;19943;-79
2023/01/31 00:07:27;;;;;;;;;;;;;;;3.70;75.36;100813.31;1087003;46;19973;-79
2023/01/31 00:08:31;;;;;;;;;;;;;;;3.62;75.42;100819.94;1087157;54;19990;-79
2023/01/31 00:09:32;;;;;;;;;;;;;;;3.56;76.05;100815.81;1087143;54;20065;-79
2023/01/31 00:10:36;;;;;;;;;;;;;;;3.61;75.58;100802.34;1087611;39;20449;-80
2023/01/31 00:11:37;;;;;;;;;;;;;;;3.54;76.22;100804.50;1087274;39;20362;-80
2023/01/31 00:12:41;;;;;;;;;;;;;;;3.68;75.77;100804.59;1087089;54;19954;-79
2023/01/31 00:13:43;;;;;;;;;;;;;;;3.62;75.54;100806.72;1087034;54;19954;-81
2023/01/31 00:14:47;;;;;;;;;;;;;;;3.55;75.74;100801.75;1087185;54;19943;-81
2023/01/31 00:15:48;;;;;;;;;;;;;;;3.43;76.39;100794.47;1087849;54;19942;-80
2023/01/31 00:16:52;;;;;;;;;;;;;;;3.53;76.27;100800.13;1087830;54;19990;-79
2023/01/31 00:17:53;;;;;;;;;;;;;;;3.45;76.07;100802.34;1089324;39;20416;-81
2023/01/31 00:19:00;;;;;;;;;;;;;;;3.40;76.37;100802.56;1087835;54;20753;-80
2023/01/31 00:20:01;;;;;;;;;;;;;;;3.38;76.34;100804.44;1087878;54;19943;-79
2023/01/31 00:21:09;;;;;;;;;;;;;;;3.48;76.59;100795.09;1088134;54;19949;-83
2023/01/31 00:22:10;;;;;;;;;;;;;;;3.51;76.17;100800.19;1091910;39;20760;-84
2023/01/31 00:23:14;;;;;;;;;;;;;;;3.53;75.84;100797.50;1088425;54;19934;-82
2023/01/31 00:24:16;;;;;;;;;;;;;;;3.57;75.85;100793.75;1088404;54;19943;-82
2023/01/31 00:25:20;;;;;;;;;;;;;;;3.55;75.83;100804.41;1088378;54;20008;-82
2023/01/31 00:26:22;;;;;;;;;;;;;;;3.58;75.76;100792.81;1088261;54;19938;-83
2023/01/31 00:27:26;;;;;;;;;;;;;;;3.53;75.72;100802.78;1088223;54;19949;-82
2023/01/31 00:28:27;;;;;;;;;;;;;;;3.40;76.33;100797.28;1088304;54;19942;-82
2023/01/31 00:29:31;;;;;;;;;;;;;;;3.38;76.83;100797.34;1088267;54;19950;-82
2023/01/31 00:30:32;;;;;;;;;;;;;;;3.47;76.62;100793.38;1088278;54;19943;-81
2023/01/31 00:31:36;;;;;;;;;;;;;;;3.56;75.90;100787.59;1088330;54;19950;-82
2023/01/31 00:32:37;;;;;;;;;;;;;;;3.52;75.94;100793.97;1088229;54;20603;-81
2023/01/31 00:33:42;;;;;;;;;;;;;;;3.55;75.83;100793.81;1088262;54;19943;-81
2023/01/31 00:34:46;;;;;;;;;;;;;;;3.56;76.29;100797.31;1088291;54;19954;-81
2023/01/31 00:35:50;;;;;;;;;;;;;;;3.57;75.88;100793.75;1088390;54;19927;-83
2023/01/31 00:36:53;;;;;;;;;;;;;;;3.54;75.75;100797.41;1088472;54;19922;-83
2023/01/31 00:37:59;;;;;;;;;;;;;;;3.50;76.33;100795.00;1088359;54;19949;-83
2023/01/31 00:39:04;;;;;;;;;;;;;;;3.41;76.58;100791.03;1088380;54;19931;-82
2023/01/31 00:40:06;;;;;;;;;;;;;;;3.46;76.38;100796.97;1088456;54;19931;-82
2023/01/31 00:41:10;;;;;;;;;;;;;;;3.50;76.15;100800.28;1088429;54;19926;-83
2023/01/31 00:42:12;;;;;;;;;;;;;;;3.41;76.12;100799.84;1088373;54;19942;-83
2023/01/31 00:43:16;;;;;;;;;;;;;;;3.34;76.55;100794.94;1088474;54;20563;-82
2023/01/31 00:44:18;;;;;;;;;;;;;;;3.25;77.05;100805.06;1088375;54;20059;-82
2023/01/31 00:45:22;;;;;;;;;;;;;;;3.33;77.00;100798.53;1088577;54;19934;-83
2023/01/31 00:46:25;;;;;;;;;;;;;;;3.30;77.00;100803.97;1088600;54;19934;-84
2023/01/31 00:47:28;;;;;;;;;;;;;;;3.39;77.07;100800.88;1089257;46;19927;-78
2023/01/31 00:48:30;;;;;;;;;;;;;;;3.50;76.39;100800.28;1091782;39;20538;-78
2023/01/31 00:49:33;;;;;;;;;;;;;;;3.55;75.86;100809.69;1088772;39;20515;-79
2023/01/31 00:50:37;;;;;;;;;;;;;;;3.48;76.05;100810.97;1087821;54;19942;-78
2023/01/31 00:51:41;;;;;;;;;;;;;;;3.41;76.30;100810.41;1087792;54;20667;-78
2023/01/31 00:52:42;;;;;;;;;;;;;;;3.43;76.40;100810.31;1087778;54;20615;-78
2023/01/31 00:53:46;;;;;;;;;;;;;;;3.39;76.50;100816.72;1087973;54;19943;-79
2023/01/31 00:54:48;;;;;;;;;;;;;;;3.36;76.93;100816.88;1088136;54;20194;-81
2023/01/31 00:55:52;;;;;;;;;;;;;;;3.49;76.58;100817.09;1090483;46;19950;-78
2023/01/31 00:56:57;;;;;;;;;;;;;;;3.57;76.36;100814.88;1088002;54;19954;-79
2023/01/31 00:58:00;;;;;;;;;;;;;;;3.50;76.13;100814.34;1087963;54;19938;-78
2023/01/31 00:59:03;;;;;;;;;;;;;;;3.51;76.41;100812.56;1088344;46;20021;-79
2023/01/31 01:00:07;;;;;;;;;;;;;;;3.54;76.03;100826.50;1089155;46;19942;-78
2023/01/31 01:01:10;;;;;;;;;;;;;;;3.56;76.15;100815.81;1088008;47;19942;-79
2023/01/31 01:02:13;;;;;;;;;;;;;;;3.45;76.57;100824.31;1087695;54;19949;-79
2023/01/31 01:03:15;;;;;;;;;;;;;;;3.45;76.57;100819.03;1087749;54;19943;-78
2023/01/31 01:04:19;;;;;;;;;;;;;;;3.50;76.12;100819.63;1087748;54;19986;-79
2023/01/31 01:05:20;;;;;;;;;;;;;;;3.47;76.64;100824.22;1087722;54;19950;-78
2023/01/31 01:06:27;;;;;;;;;;;;;;;3.48;76.49;100821.53;1089249;46;19942;-79
2023/01/31 01:07:28;;;;;;;;;;;;;;;3.40;76.46;100823.72;1087554;54;19942;-79
2023/01/31 01:08:32;;;;;;;;;;;;;;;3.41;76.70;100820.13;1087709;54;19943;-79
2023/01/31 01:09:33;;;;;;;;;;;;;;;3.35;76.83;100820.44;1087617;54;19943;-80
2023/01/31 01:10:36;;;;;;;;;;;;;;;3.32;77.20;100815.31;1088197;46;19949;-79
2023/01/31 01:11:38;;;;;;;;;;;;;;;3.37;76.86;100816.78;1087481;54;20769;-79
2023/01/31 01:12:41;;;;;;;;;;;;;;;3.43;76.74;100819.13;1087643;54;19943;-78
2023/01/31 01:13:43;;;;;;;;;;;;;;;3.47;76.41;100825.09;1087612;54;19942;-79
2023/01/31 01:14:47;;;;;;;;;;;;;;;3.43;76.57;100815.63;1091253;31;20681;-79
2023/01/31 01:15:48;;;;;;;;;;;;;;;3.48;76.32;100816.25;1087875;54;19943;-78
2023/01/31 01:16:52;;;;;;;;;;;;;;;3.52;76.05;100816.94;1087687;54;19938;-79
2023/01/31 01:17:53;;;;;;;;;;;;;;;3.53;76.07;100816.84;1087662;54;19973;-78
2023/01/31 01:18:57;;;;;;;;;;;;;;;3.58;75.91;100821.88;1087703;54;19942;-79
2023/01/31 01:20:02;;;;;;;;;;;;;;;3.59;75.57;100816.50;1087716;54;19950;-80
2023/01/31 01:21:10;;;;;;;;;;;;;;;3.63;75.56;100819.00;1087622;54;19983;-79
2023/01/31 01:22:14;;;;;;;;;;;;;;;3.56;75.57;100819.34;1090544;39;20516;-79
2023/01/31 01:23:18;;;;;;;;;;;;;;;3.43;76.01;100818.25;1087631;54;19942;-79
2023/01/31 01:24:19;;;;;;;;;;;;;;;3.44;76.40;100812.03;1087523;54;19946;-79
2023/01/31 01:25:23;;;;;;;;;;;;;;;3.34;76.50;100818.72;1087660;54;19942;-79
2023/01/31 01:26:25;;;;;;;;;;;;;;;3.29;76.67;100824.25;1087636;54;19954;-79
2023/01/31 01:27:30;;;;;;;;;;;;;;;3.22;76.82;100822.88;1087602;54;19946;-79
2023/01/31 01:28:32;;;;;;;;;;;;;;;3.26;77.02;100820.00;1087682;54;19957;-79
2023/01/31 01:29:36;;;;;;;;;;;;;;;3.21;77.09;100823.81;1087693;54;20006;-80
2023/01/31 01:30:37;;;;;;;;;;;;;;;3.15;77.30;100814.41;1087704;54;19954;-79
2023/01/31 01:31:42;;;;;;;;;;;;;;;3.14;77.43;100817.13;1087616;54;20410;-80
2023/01/31 01:32:43;;;;;;;;;;;;;;;3.11;77.49;100823.44;1087647;54;19965;-79
2023/01/31 01:33:47;;;;;;;;;;;;;;;3.09;77.73;100827.94;1087680;54;19954;-80
2023/01/31 01:34:48;;;;;;;;;;;;;;;3.19;77.30;100821.25;1087704;54;19966;-79
2023/01/31 01:36:01;;;;;;;;;;;;;;;3.24;77.12;100826.28;1088032;54;19954;-80
2023/01/31 01:37:08;;;;;;;;;;;;;;;3.13;77.31;100824.19;1087816;54;19939;-79
2023/01/31 01:38:15;;;;;;;;;;;;;;;3.20;77.25;100822.09;1088622;46;19943;-79
2023/01/31 01:39:16;;;;;;;;;;;;;;;3.13;77.43;100821.53;1087706;54;19942;-79
2023/01/31 01:40:20;;;;;;;;;;;;;;;3.23;77.10;100828.06;1087641;54;19942;-79
2023/01/31 01:41:21;;;;;;;;;;;;;;;3.25;76.92;100836.78;1087663;54;19949;-80
2023/01/31 01:45:26;;;;;;;;;;;;;;;3.28;76.89;100841.91;1087687;39;20807;-79
2023/01/31 01:46:29;;;;;;;;;;;;;;;3.38;76.86;100836.16;1087284;54;20026;-80
2023/01/31 01:47:38;;;;;;;;;;;;;;;3.20;76.89;100833.53;1087166;54;19938;-80
2023/01/31 01:48:41;;;;;;;;;;;;;;;3.22;77.08;100831.63;1087257;54;19950;-79
2023/01/31 01:51:02;;;;;;;;;;;;;;;3.24;77.34;100834.22;1088238;39;20550;-79
2023/01/31 01:52:06;;;;;;;;;;;;;;;3.09;77.73;100836.69;1087266;54;20263;-80
2023/01/31 01:53:12;;;;;;;;;;;;;;;3.10;77.70;100837.56;1088924;46;19946;-79
2023/01/31 01:54:20;;;;;;;;;;;;;;;3.19;77.30;100837.09;1087318;54;19951;-80
2023/01/31 01:55:25;;;;;;;;;;;;;;;3.19;77.34;100834.47;1087197;54;19949;-79
2023/01/31 01:56:31;;;;;;;;;;;;;;;3.09;77.87;100834.06;1087618;46;19938;-80
2023/01/31 01:57:38;;;;;;;;;;;;;;;3.18;77.54;100831.88;1087280;54;19942;-80
2023/01/31 01:58:43;;;;;;;;;;;;;;;3.10;77.64;100838.41;1087378;54;19967;-80
2023/01/31 01:59:49;;;;;;;;;;;;;;;3.13;77.79;100834.75;1087357;54;19949;-79
2023/01/31 02:00:54;;;;;;;;;;;;;;;3.15;77.75;100829.41;1087276;54;19942;-79
2023/01/31 02:01:55;;;;;;;;;;;;;;;3.22;77.59;100820.22;1087286;54;20018;-80
2023/01/31 02:03:01;;;;;;;;;;;;;;;3.26;77.51;100827.91;1087334;54;19950;-81
2023/01/31 02:04:03;;;;;;;;;;;;;;;3.34;77.11;100822.25;1088204;46;19992;-80
2023/01/31 02:05:08;;;;;;;;;;;;;;;3.24;77.07;100831.59;1087336;54;19973;-81
2023/01/31 02:06:10;;;;;;;;;;;;;;;3.30;77.33;100833.91;1087356;54;19942;-80
2023/01/31 02:07:14;;;;;;;;;;;;;;;3.37;76.87;100829.16;1090741;39;20792;-81
2023/01/31 02:08:16;;;;;;;;;;;;;;;3.37;76.35;100832.63;1087316;54;19943;-80
2023/01/31 02:09:27;;;;;;;;;;;;;;;3.38;76.63;100830.88;1087257;54;20809;-79
2023/01/31 02:10:31;;;;;;;;;;;;;;;3.40;76.42;100834.28;1087295;54;19943;-79
2023/01/31 02:11:35;;;;;;;;;;;;;;;3.28;76.94;100831.34;1087176;54;19943;-80
2023/01/31 02:12:36;;;;;;;;;;;;;;;3.30;76.73;100833.91;1087171;54;19968;-80
2023/01/31 02:13:41;;;;;;;;;;;;;;;3.33;76.66;100835.53;1087306;54;20298;-80
2023/01/31 02:14:44;;;;;;;;;;;;;;;3.30;76.81;100833.06;1087367;54;19977;-79
2023/01/31 02:15:48;;;;;;;;;;;;;;;3.35;76.55;100831.03;1086514;54;19950;-79
2023/01/31 02:16:49;;;;;;;;;;;;;;;3.26;76.88;100830.56;1087267;54;19950;-79
2023/01/31 02:17:54;;;;;;;;;;;;;;;3.18;77.32;100838.03;1087268;54;19927;-80
2023/01/31 02:18:56;;;;;;;;;;;;;;;3.15;77.46;100835.53;1087722;39;20964;-80
2023/01/31 02:20:05;;;;;;;;;;;;;;;3.26;77.13;100838.50;1087287;54;19949;-80
2023/01/31 02:21:18;;;;;;;;;;;;;;;3.30;77.11;100836.53;1087289;54;20733;-79
2023/01/31 02:22:25;;;;;;;;;;;;;;;3.25;76.71;100842.06;1092579;39;20863;-79
2023/01/31 02:23:43;;;;;;;;;;;;;;;3.31;76.60;100840.06;1089560;46;19943;-79
2023/01/31 02:25:10;;;;;;;;;;;;;;;3.26;77.18;100830.56;1087242;54;19999;-79
2023/01/31 02:26:26;;;;;;;;;;;;;;;3.31;76.79;100842.69;1087238;54;20877;-80
2023/01/31 02:27:44;;;;;;;;;;;;;;;3.21;77.23;100856.34;1087176;54;20031;-79
2023/01/31 02:28:59;;;;;;;;;;;;;;;3.32;76.93;100845.25;1087226;54;19927;-80
2023/01/31 02:30:21;;;;;;;;;;;;;;;3.25;76.68;100841.22;1087187;54;19943;-79
2023/01/31 02:31:39;;;;;;;;;;;;;;;3.23;77.24;100849.22;1087283;54;19939;-80
2023/01/31 02:32:55;;;;;;;;;;;;;;;3.03;77.79;100849.34;1087256;54;19943;-78
2023/01/31 02:34:00;;;;;;;;;;;;;;;3.20;77.29;100857.31;1087194;54;19949;-81
2023/01/31 02:35:11;;;;;;;;;;;;;;;3.23;77.10;100851.84;1087289;54;19942;-80
2023/01/31 02:36:18;;;;;;;;;;;;;;;3.24;77.11;100856.22;1087419;54;19949;-79
2023/01/31 02:37:29;;;;;;;;;;;;;;;3.24;77.08;100858.84;1087501;54;19950;-79
2023/01/31 02:38:38;;;;;;;;;;;;;;;3.32;76.78;100853.19;1087725;54;19950;-79
2023/01/31 02:39:46;;;;;;;;;;;;;;;3.26;77.18;100861.41;1088763;46;19942;-79
2023/01/31 02:40:49;;;;;;;;;;;;;;;3.24;77.22;100860.66;1087843;54;19949;-79
2023/01/31 02:41:58;;;;;;;;;;;;;;;3.26;77.28;100862.28;1088044;54;19942;-79
2023/01/31 02:43:05;;;;;;;;;;;;;;;3.26;77.14;100864.91;1088125;54;19973;-79
2023/01/31 02:45:33;;;;;;;;;;;;;;;3.26;77.18;100864.91;1087960;54;19942;-80
2023/01/31 02:46:40;;;;;;;;;;;;;;;3.25;77.08;100862.38;1088202;47;19954;-80
2023/01/31 02:47:47;;;;;;;;;;;;;;;3.32;76.72;100866.41;1087871;54;19939;-80
2023/01/31 02:48:56;;;;;;;;;;;;;;;3.34;76.76;100858.38;1089265;46;19939;-79
2023/01/31 02:50:01;;;;;;;;;;;;;;;3.34;76.98;100855.75;1087910;54;20270;-79
2023/01/31 02:51:07;;;;;;;;;;;;;;;3.41;76.47;100858.00;1088538;46;20015;-79
2023/01/31 02:52:16;;;;;;;;;;;;;;;3.30;76.71;100849.75;1087750;54;20627;-80
2023/01/31 02:53:23;;;;;;;;;;;;;;;3.31;76.87;100851.47;1087723;54;19950;-80
2023/01/31 02:56:13;;;;;;;;;;;;;;;3.30;77.04;100852.41;1087822;54;19942;-79
2023/01/31 02:57:07;;;;;;;;;;;;;;;3.18;77.15;100866.22;1087815;54;19942;-80
2023/01/31 02:58:12;;;;;;;;;;;;;;;3.12;77.84;100857.69;1087897;54;19942;-80
2023/01/31 02:59:17;;;;;;;;;;;;;;;3.17;77.85;100865.38;1087898;54;19959;-79
2023/01/31 03:00:21;;;;;;;;;;;;;;;3.25;77.47;100865.84;1087909;54;19942;-80
2023/01/31 03:01:26;;;;;;;;;;;;;;;3.29;77.21;100858.63;1087892;54;19967;-79
2023/01/31 03:02:30;;;;;;;;;;;;;;;3.37;77.15;100866.16;1087845;54;19949;-79
2023/01/31 03:03:32;;;;;;;;;;;;;;;3.27;77.28;100871.03;1087836;54;19950;-80
2023/01/31 03:04:40;;;;;;;;;;;;;;;3.31;77.21;100869.13;1087837;54;19954;-79
2023/01/31 03:05:41;;;;;;;;;;;;;;;3.30;77.43;100870.06;1087844;54;19942;-79
2023/01/31 03:07:01;;;;;;;;;;;;;;;3.17;77.72;100869.78;1088048;46;19968;-80
2023/01/31 03:08:04;;;;;;;;;;;;;;;3.22;77.54;100866.00;1090355;39;20574;-80
2023/01/31 03:09:09;;;;;;;;;;;;;;;3.09;78.17;100867.56;1087843;54;19942;-79
2023/01/31 03:10:27;;;;;;;;;;;;;;;3.15;77.98;100869.88;1087850;54;19950;-79
2023/01/31 03:11:37;;;;;;;;;;;;;;;3.06;78.13;100865.06;1088497;31;20720;-80
2023/01/31 03:12:45;;;;;;;;;;;;;;;3.15;78.02;100861.94;1087790;54;19938;-80
2023/01/31 03:13:55;;;;;;;;;;;;;;;3.24;77.85;100865.94;1087831;54;19947;-79
2023/01/31 03:15:03;;;;;;;;;;;;;;;3.10;77.81;100864.81;1087808;54;19950;-80
2023/01/31 03:17:40;;;;;;;;;;;;;;;3.12;78.28;100862.97;1087770;54;19943;-79
2023/01/31 03:18:43;;;;;;;;;;;;;;;3.03;78.84;100862.56;1089302;39;20625;-79
2023/01/31 03:19:52;;;;;;;;;;;;;;;3.00;78.83;100852.16;1087834;54;19949;-80
2023/01/31 03:20:56;;;;;;;;;;;;;;;3.01;78.64;100862.66;1087849;54;19950;-79
2023/01/31 03:22:03;;;;;;;;;;;;;;;2.99;78.65;100861.84;1087721;54;19950;-80
2023/01/31 03:23:07;;;;;;;;;;;;;;;3.11;78.53;100865.69;1087807;54;19943;-80
2023/01/31 03:24:11;;;;;;;;;;;;;;;3.15;78.36;100863.75;1087843;54;19942;-79
2023/01/31 03:25:14;;;;;;;;;;;;;;;3.09;77.78;100862.28;1087798;54;19949;-80
2023/01/31 03:26:19;;;;;;;;;;;;;;;3.08;78.38;100868.47;1087810;54;19946;-80
2023/01/31 03:27:20;;;;;;;;;;;;;;;3.11;77.80;100871.81;1087679;54;19965;-80
2023/01/31 03:28:27;;;;;;;;;;;;;;;3.15;77.90;100866.41;1088853;46;19949;-79
2023/01/31 03:29:29;;;;;;;;;;;;;;;3.12;77.67;100868.25;1087745;54;19947;-79
2023/01/31 03:30:37;;;;;;;;;;;;;;;3.13;78.00;100863.81;1087802;54;19942;-79
2023/01/31 03:31:40;;;;;;;;;;;;;;;3.11;77.72;100863.91;1087812;54;20632;-79
2023/01/31 03:32:46;;;;;;;;;;;;;;;3.04;77.88;100873.06;1089703;39;20503;-79
2023/01/31 03:33:48;;;;;;;;;;;;;;;3.10;77.95;100870.13;1087824;54;19950;-79
2023/01/31 03:34:55;;;;;;;;;;;;;;;3.18;77.57;100876.78;1087763;54;19942;-79
2023/01/31 03:36:00;;;;;;;;;;;;;;;3.19;77.27;100874.09;1087768;54;19943;-79
2023/01/31 03:37:09;;;;;;;;;;;;;;;3.12;77.65;100872.66;1087797;54;19946;-79
2023/01/31 03:38:14;;;;;;;;;;;;;;;3.11;77.51;100876.28;1087832;54;19943;-79
2023/01/31 03:39:22;;;;;;;;;;;;;;;3.01;77.58;100861.81;1087787;54;19943;-79
2023/01/31 03:40:25;;;;;;;;;;;;;;;3.05;77.87;100871.28;1087789;54;19969;-78
2023/01/31 03:41:32;;;;;;;;;;;;;;;3.00;77.99;100873.31;1087833;54;19942;-78
2023/01/31 03:42:39;;;;;;;;;;;;;;;3.09;77.98;100864.91;1087817;54;19952;-79
2023/01/31 03:43:47;;;;;;;;;;;;;;;3.15;77.49;100859.31;1087802;54;19950;-79
2023/01/31 03:44:54;;;;;;;;;;;;;;;3.21;77.24;100866.06;1090424;39;20596;-78
2023/01/31 03:46:00;;;;;;;;;;;;;;;3.19;76.72;100860.00;1087957;54;19945;-79
2023/01/31 03:47:03;;;;;;;;;;;;;;;3.22;77.01;100867.78;1087837;54;19942;-79
2023/01/31 03:48:16;;;;;;;;;;;;;;;3.19;76.91;100875.88;1094900;39;20145;-79
2023/01/31 03:49:20;;;;;;;;;;;;;;;3.19;77.05;100882.03;1089244;46;19943;-79
2023/01/31 03:50:29;;;;;;;;;;;;;;;3.22;76.72;100875.72;1088992;46;19950;-79
2023/01/31 03:51:31;;;;;;;;;;;;;;;3.19;76.60;100884.66;1088139;54;19958;-77
2023/01/31 03:52:37;;;;;;;;;;;;;;;3.22;76.90;100884.50;1090556;46;19970;-78
2023/01/31 03:53:40;;;;;;;;;;;;;;;3.24;76.58;100880.00;1087692;54;19945;-78
2023/01/31 03:54:48;;;;;;;;;;;;;;;3.21;76.79;100880.13;1089243;39;20191;-80
2023/01/31 03:55:52;;;;;;;;;;;;;;;3.22;76.55;100879.22;1087794;54;19949;-78
2023/01/31 03:57:03;;;;;;;;;;;;;;;3.20;76.67;100881.09;1087763;54;19949;-79
2023/01/31 03:58:06;;;;;;;;;;;;;;;3.10;76.81;100885.13;1088856;46;19943;-78
2023/01/31 03:59:12;;;;;;;;;;;;;;;3.19;77.05;100884.66;1087779;54;19946;-78
2023/01/31 04:00:16;;;;;;;;;;;;;;;3.15;76.95;100892.81;1087775;54;19943;-78
2023/01/31 04:01:22;;;;;;;;;;;;;;;2.98;77.10;100886.56;1090750;39;20182;-79
2023/01/31 04:02:27;;;;;;;;;;;;;;;2.92;77.81;100886.88;1087676;54;19967;-79
2023/01/31 04:03:33;;;;;;;;;;;;;;;3.06;77.43;100894.13;1087334;54;19949;-80
2023/01/31 04:04:37;;;;;;;;;;;;;;;2.98;77.65;100891.84;1087918;39;20578;-79
2023/01/31 04:05:44;;;;;;;;;;;;;;;3.01;77.79;100896.16;1088923;46;19949;-78
2023/01/31 04:06:45;;;;;;;;;;;;;;;3.09;77.53;100888.69;1087719;54;19943;-79
2023/01/31 04:07:49;;;;;;;;;;;;;;;3.15;77.01;100892.81;1087672;54;19949;-79
2023/01/31 04:08:50;;;;;;;;;;;;;;;3.18;76.84;100888.22;1087777;54;19943;-79
2023/01/31 04:09:54;;;;;;;;;;;;;;;2.94;77.47;100888.50;1089744;39;20503;-79
2023/01/31 04:10:57;;;;;;;;;;;;;;;2.87;78.37;100889.75;1087830;54;19942;-79
2023/01/31 04:12:01;;;;;;;;;;;;;;;2.97;78.15;100887.53;1087656;54;19966;-78
2023/01/31 04:13:05;;;;;;;;;;;;;;;2.99;78.05;100898.00;1087708;54;19943;-78
2023/01/31 04:14:07;;;;;;;;;;;;;;;2.99;77.80;100892.72;1087792;54;19943;-78
2023/01/31 04:15:12;;;;;;;;;;;;;;;2.95;77.76;100903.41;1087809;54;19947;-78
2023/01/31 04:16:14;;;;;;;;;;;;;;;3.01;77.83;100904.06;1087700;54;20683;-79
2023/01/31 04:17:17;;;;;;;;;;;;;;;2.90;77.82;100904.56;1087715;54;19943;-79
2023/01/31 04:18:18;;;;;;;;;;;;;;;3.01;77.76;100910.19;1087765;54;19943;-78
2023/01/31 04:19:22;;;;;;;;;;;;;;;2.96;77.44;100906.94;1087740;54;19949;-80
2023/01/31 04:20:23;;;;;;;;;;;;;;;2.93;77.82;100905.28;1087797;54;19943;-79
2023/01/31 04:21:29;;;;;;;;;;;;;;;2.92;77.70;100918.56;1087801;54;19943;-78
2023/01/31 04:22:31;;;;;;;;;;;;;;;2.75;78.42;100920.25;1087758;54;19966;-78
2023/01/31 04:23:34;;;;;;;;;;;;;;;2.76;78.55;100919.31;1087768;54;19946;-79
2023/01/31 04:24:35;;;;;;;;;;;;;;;2.90;78.45;100918.66;1087777;54;19942;-77
2023/01/31 04:25:39;;;;;;;;;;;;;;;2.92;77.97;100919.44;1087807;54;19943;-79
2023/01/31 04:26:40;;;;;;;;;;;;;;;2.95;77.47;100914.00;1087764;54;19946;-78
2023/01/31 04:27:44;;;;;;;;;;;;;;;2.88;77.93;100912.59;1087672;54;19949;-79
2023/01/31 04:28:45;;;;;;;;;;;;;;;2.96;77.95;100910.41;1088550;46;19943;-79
2023/01/31 04:29:49;;;;;;;;;;;;;;;3.02;77.51;100905.78;1087800;54;19943;-79
2023/01/31 04:30:51;;;;;;;;;;;;;;;3.05;77.38;100902.97;1087717;54;19958;-78
2023/01/31 04:31:55;;;;;;;;;;;;;;;2.94;77.42;100914.91;1087713;54;19949;-79
2023/01/31 04:32:56;;;;;;;;;;;;;;;2.84;78.16;100920.72;1087778;54;19970;-79
2023/01/31 04:34:00;;;;;;;;;;;;;;;2.71;78.55;100915.19;1087718;54;19966;-80
2023/01/31 04:35:01;;;;;;;;;;;;;;;2.73;78.72;100905.41;1089498;46;19949;-79
2023/01/31 04:36:05;;;;;;;;;;;;;;;2.76;78.55;100902.59;1087744;54;19943;-80
2023/01/31 04:37:11;;;;;;;;;;;;;;;2.84;78.33;100905.72;1087654;54;19950;-79
2023/01/31 04:38:15;;;;;;;;;;;;;;;2.90;77.82;100892.25;1087765;54;19942;-79
2023/01/31 04:39:16;;;;;;;;;;;;;;;2.79;78.20;100899.81;1087767;54;19942;-79
2023/01/31 04:40:20;;;;;;;;;;;;;;;2.75;78.32;100896.47;1087813;54;19942;-79
2023/01/31 04:41:21;;;;;;;;;;;;;;;2.63;78.98;100902.34;1087694;54;19943;-79
2023/01/31 04:42:25;;;;;;;;;;;;;;;2.72;78.61;100895.78;1087840;54;20004;-78
2023/01/31 04:43:26;;;;;;;;;;;;;;;2.73;78.74;100897.50;1087830;54;19947;-79
2023/01/31 04:44:32;;;;;;;;;;;;;;;2.70;78.64;100898.47;1087942;54;19943;-78
2023/01/31 04:45:33;;;;;;;;;;;;;;;2.64;78.66;100894.34;1088023;54;19943;-78
2023/01/31 04:46:43;;;;;;;;;;;;;;;2.58;78.79;100902.56;1087986;54;19923;-79
2023/01/31 04:47:44;;;;;;;;;;;;;;;2.53;79.45;100899.28;1088713;46;19950;-79
2023/01/31 04:48:48;;;;;;;;;;;;;;;2.49;79.44;100900.34;1087940;54;19947;-79
2023/01/31 04:49:49;;;;;;;;;;;;;;;2.57;79.44;100897.34;1087884;54;19943;-79
2023/01/31 04:50:53;;;;;;;;;;;;;;;2.59;78.96;100906.91;1087869;54;19942;-79
2023/01/31 04:51:54;;;;;;;;;;;;;;;2.60;78.97;100900.69;1087838;54;19934;-78
2023/01/31 04:53:00;;;;;;;;;;;;;;;2.68;78.94;100896.84;1087853;54;19953;-78
2023/01/31 04:54:01;;;;;;;;;;;;;;;2.64;78.75;100902.28;1088817;46;19942;-78
2023/01/31 04:55:05;;;;;;;;;;;;;;;2.69;78.84;100891.50;1087736;54;19943;-79
2023/01/31 04:56:06;;;;;;;;;;;;;;;2.54;78.74;100893.09;1087746;54;19949;-79
2023/01/31 04:57:10;;;;;;;;;;;;;;;2.61;79.04;100896.25;1087623;47;21084;-79
2023/01/31 04:58:11;;;;;;;;;;;;;;;2.61;78.85;100894.50;1087698;54;19947;-79
2023/01/31 04:59:16;;;;;;;;;;;;;;;2.47;78.79;100892.50;1087455;54;19943;-80
2023/01/31 05:00:18;;;;;;;;;;;;;;;2.49;78.98;100895.06;1087693;54;19950;-78
2023/01/31 05:01:22;;;;;;;;;;;;;;;2.50;78.91;100897.63;1087694;54;20028;-78
2023/01/31 05:02:23;;;;;;;;;;;;;;;2.57;78.93;100887.63;1089131;39;20614;-80
2023/01/31 05:03:27;;;;;;;;;;;;;;;2.56;78.96;100899.13;1087705;54;19943;-79
2023/01/31 05:04:28;;;;;;;;;;;;;;;2.67;78.60;100887.19;1087682;54;19947;-79
2023/01/31 05:05:32;;;;;;;;;;;;;;;2.60;78.28;100898.06;1087612;54;19990;-79
2023/01/31 05:06:35;;;;;;;;;;;;;;;2.43;78.90;100895.38;1087659;54;19939;-78
2023/01/31 05:07:37;;;;;;;;;;;;;;;2.44;78.73;100891.81;1087580;54;19942;-79
2023/01/31 05:08:43;;;;;;;;;;;;;;;2.44;78.67;100892.63;1087702;54;19949;-78
2023/01/31 05:09:45;;;;;;;;;;;;;;;2.45;78.83;100888.22;1087736;54;19930;-78
2023/01/31 05:10:49;;;;;;;;;;;;;;;2.40;78.78;100892.84;1087730;54;19994;-79
2023/01/31 05:11:50;;;;;;;;;;;;;;;2.43;78.86;100898.00;1087714;54;19943;-80
2023/01/31 05:12:54;;;;;;;;;;;;;;;2.42;78.46;100898.94;1087691;54;19942;-79
2023/01/31 05:13:55;;;;;;;;;;;;;;;2.41;78.77;100892.78;1087674;54;19942;-79
2023/01/31 05:14:59;;;;;;;;;;;;;;;2.45;78.42;100888.22;1087736;54;19999;-78
2023/01/31 05:16:00;;;;;;;;;;;;;;;2.51;78.18;100893.22;1087629;54;19942;-78
2023/01/31 05:17:04;;;;;;;;;;;;;;;2.50;77.99;100891.50;1086978;54;20530;-79
2023/01/31 05:18:05;;;;;;;;;;;;;;;2.48;78.17;100890.72;1087642;54;19965;-79
2023/01/31 05:19:09;;;;;;;;;;;;;;;2.49;78.28;100884.50;1087645;54;19954;-79
2023/01/31 05:20:11;;;;;;;;;;;;;;;2.45;78.18;100878.53;1087658;54;19950;-79
2023/01/31 05:21:14;;;;;;;;;;;;;;;2.36;78.66;100876.31;1087695;54;19986;-80
2023/01/31 05:22:15;;;;;;;;;;;;;;;2.41;78.66;100881.38;1087559;54;19943;-80
2023/01/31 05:23:20;;;;;;;;;;;;;;;2.45;78.34;100881.16;1087680;54;19942;-80
2023/01/31 05:24:26;;;;;;;;;;;;;;;2.37;78.69;100879.78;1087545;54;19938;-80
2023/01/31 05:25:29;;;;;;;;;;;;;;;2.39;78.68;100872.66;1087547;54;20002;-77
2023/01/31 05:26:31;;;;;;;;;;;;;;;2.32;78.94;100867.69;1087756;54;19947;-79
2023/01/31 05:27:34;;;;;;;;;;;;;;;2.25;79.18;100871.53;1089621;39;20565;-79
2023/01/31 05:28:46;;;;;;;;;;;;;;;;;;;;;
2023/01/31 05:29:59;;;;;;;;;;;;;;;2.34;79.36;100886.06;1092413;39;20213;-78
2023/01/31 05:31:01;;;;;;;;;;;;;;;2.31;79.42;100879.16;1087329;54;19946;-79
2023/01/31 05:32:05;;;;;;;;;;;;;;;2.34;79.39;100886.06;1087637;54;19949;-79
2023/01/31 05:33:06;;;;;;;;;;;;;;;2.44;79.13;100882.09;1087699;54;19942;-79
2023/01/31 05:34:13;;;;;;;;;;;;;;;2.43;78.76;100879.53;1087544;54;19942;-80
2023/01/31 05:35:15;;;;;;;;;;;;;;;2.43;78.77;100884.81;1087703;54;20923;-80
2023/01/31 05:36:25;;;;;;;;;;;;;;;2.34;79.00;100892.22;1087613;54;19942;-81
2023/01/31 05:37:27;;;;;;;;;;;;;;;2.33;78.94;100890.50;1087449;54;20019;-80
2023/01/31 05:38:30;;;;;;;;;;;;;;;2.32;79.24;100888.78;1087629;54;19991;-79
2023/01/31 05:39:35;;;;;;;;;;;;;;;2.28;79.41;100887.22;1087752;54;19950;-81
2023/01/31 05:40:39;;;;;;;;;;;;;;;2.31;79.11;100887.09;1088178;54;19942;-79
2023/01/31 05:41:40;;;;;;;;;;;;;;;2.40;78.93;100887.56;1088219;54;19949;-78
2023/01/31 05:42:44;;;;;;;;;;;;;;;2.40;78.58;100893.72;1088236;54;19950;-79
2023/01/31 05:43:45;;;;;;;;;;;;;;;2.43;78.75;100895.38;1090979;46;19942;-78
2023/01/31 05:44:51;;;;;;;;;;;;;;;2.44;78.58;100890.00;1088229;54;19923;-78